Time;durP1;ratioP1;P1;durP2;ratioP2;P2;SDS_P1;SDS_P2;PMS_P1;PMS_P2;Temp;Humidity;BMP_temperature;BMP_pressure;BME280_temperature;BME280_humidity;BME280_pressure;Samples;Min_cycle;Max_cycle;Signal;HPM_P1;HPM_P2
2021/04/15 00:01:16;;;;;;;2.47;2.28;;;;;;;;;;5118365;28;20040;-50
2021/04/15 00:03:43;;;;;;;3.15;2.45;;;;;;;;;;5118765;28;20047;-49
2021/04/15 00:06:14;;;;;;;2.50;2.10;;;;;;;;;;5118079;28;20036;-50
2021/04/15 00:08:41;;;;;;;2.20;2.00;;;;;;;;;;5118404;28;20035;-51
2021/04/15 00:11:10;;;;;;;2.42;1.95;;;;;;;;;;5100621;28;20047;-53
2021/04/15 00:13:38;;;;;;;2.90;2.30;;;;;;;;;;5118573;28;20040;-50
2021/04/15 00:16:06;;;;;;;5.03;1.83;;;;;;;;;;5118562;28;20047;-51
2021/04/15 00:18:33;;;;;;;3.28;2.20;;;;;;;;;;5112624;28;20055;-48
2021/04/15 00:21:02;;;;;;;2.20;2.00;;;;;;;;;;5115984;28;20366;-49
2021/04/15 00:23:29;;;;;;;2.33;1.88;;;;;;;;;;5118397;28;20047;-48
2021/04/15 00:26:04;;;;;;;2.53;2.33;;;;;;;;;;5117610;28;20034;-47
2021/04/15 00:28:31;;;;;;;2.70;2.10;;;;;;;;;;5117755;28;20036;-48
2021/04/15 00:30:58;;;;;;;2.60;2.20;;;;;;;;;;5118072;28;20032;-48
2021/04/15 00:33:25;;;;;;;2.58;2.38;;;;;;;;;;5118296;28;20036;-53
2021/04/15 00:35:53;;;;;;;3.22;2.47;;;;;;;;;;5118093;28;20054;-49
2021/04/15 00:38:33;;;;;;;3.25;2.72;;;;;;;;;;5117846;28;20555;-48
2021/04/15 00:40:59;;;;;;;2.33;2.13;;;;;;;;;;5117683;28;20039;-50
2021/04/15 00:43:28;;;;;;;2.55;2.28;;;;;;;;;;5099672;28;20066;-48
2021/04/15 00:45:55;;;;;;;2.60;2.40;;;;;;;;;;5117690;28;20040;-48
2021/04/15 00:48:22;;;;;;;2.40;2.20;;;;;;;;;;5117114;28;20062;-52
2021/04/15 00:50:53;;;;;;;2.38;2.00;;;;;;;;;;5097556;28;20044;-50
2021/04/15 00:53:23;;;;;;;2.80;2.50;;;;;;;;;;5117705;28;20334;-53
2021/04/15 00:55:51;;;;;;;2.35;2.15;;;;;;;;;;5117808;28;20050;-48
2021/04/15 00:58:17;;;;;;;2.28;2.08;;;;;;;;;;5117162;28;20046;-48
2021/04/15 01:00:44;;;;;;;2.60;2.28;;;;;;;;;;5117628;28;20043;-51
2021/04/15 01:03:11;;;;;;;2.80;2.20;;;;;;;;;;5117357;28;20038;-49
2021/04/15 01:05:40;;;;;;;3.03;2.47;;;;;;;;;;5117808;28;20319;-50
2021/04/15 01:08:07;;;;;;;2.25;2.05;;;;;;;;;;5117462;28;20035;-46
2021/04/15 01:10:42;;;;;;;2.70;2.22;;;;;;;;;;5117367;28;20354;-53
2021/04/15 01:13:28;;;;;;;2.88;2.60;;;;;;;;;;5117408;28;20039;-52
2021/04/15 01:16:15;;;;;;;2.70;2.40;;;;;;;;;;5117334;28;20051;-51
2021/04/15 01:18:57;;;;;;;2.92;2.53;;;;;;;;;;5058763;28;20044;-48
2021/04/15 01:21:29;;;;;;;5.32;2.45;;;;;;;;;;5096326;28;20044;-49
2021/04/15 01:24:00;;;;;;;2.67;2.30;;;;;;;;;;5096970;28;20075;-52
2021/04/15 01:26:26;;;;;;;2.78;2.42;;;;;;;;;;5096692;28;20070;-54
2021/04/15 01:29:02;;;;;;;3.13;2.80;;;;;;;;;;5115797;28;20036;-51
2021/04/15 01:31:49;;;;;;;3.00;2.63;;;;;;;;;;5117295;28;20035;-49
2021/04/15 01:34:31;;;;;;;2.60;2.40;;;;;;;;;;5116886;28;20046;-48
2021/04/15 01:37:01;;;;;;;3.20;2.45;;;;;;;;;;5103673;28;20040;-48
2021/04/15 01:39:32;;;;;;;2.80;2.30;;;;;;;;;;5116845;28;20040;-53
2021/04/15 01:42:02;;;;;;;2.60;2.22;;;;;;;;;;5116659;28;20043;-48
2021/04/15 01:44:41;;;;;;;4.88;2.22;;;;;;;;;;5116756;28;20039;-52
2021/04/15 01:47:10;;;;;;;2.38;2.13;;;;;;;;;;5116675;28;20040;-49
2021/04/15 01:49:38;;;;;;;2.20;1.80;;;;;;;;;;5116102;28;20052;-50
2021/04/15 01:52:07;;;;;;;2.47;2.00;;;;;;;;;;5116712;28;20044;-48
2021/04/15 01:54:36;;;;;;;2.40;2.20;;;;;;;;;;5115748;28;20036;-47
2021/04/15 01:57:21;;;;;;;2.92;1.77;;;;;;;;;;5115978;28;20043;-48
2021/04/15 01:59:53;;;;;;;2.45;2.03;;;;;;;;;;5116130;28;20050;-49
2021/04/15 02:02:20;;;;;;;4.47;2.00;;;;;;;;;;5098456;28;20048;-52
2021/04/15 02:04:52;;;;;;;2.70;2.13;;;;;;;;;;5116490;28;20694;-49
2021/04/15 02:07:19;;;;;;;;;;;;;;;;;;5098791;28;20035;-50
2021/04/15 02:09:47;;;;;;;2.30;2.10;;;;;;;;;;5116302;28;19907;-48
2021/04/15 02:12:17;;;;;;;2.40;1.98;;;;;;;;;;5109315;28;20040;-49
2021/04/15 02:14:46;;;;;;;2.10;1.88;;;;;;;;;;5095872;28;20047;-47
2021/04/15 02:17:14;;;;;;;2.03;1.83;;;;;;;;;;5098720;28;20036;-48
2021/04/15 02:19:46;;;;;;;2.85;1.88;;;;;;;;;;5096861;28;20040;-49
2021/04/15 02:22:32;;;;;;;2.67;1.75;;;;;;;;;;5095728;28;20040;-47
2021/04/15 02:25:05;;;;;;;3.60;1.80;;;;;;;;;;5095665;28;20040;-48
2021/04/15 02:27:37;;;;;;;2.05;1.85;;;;;;;;;;5104174;28;20035;-50
2021/04/15 02:30:09;;;;;;;2.75;2.03;;;;;;;;;;5111733;28;20062;-49
2021/04/15 02:32:36;;;;;;;;;;;;;;;;;;5096224;28;20370;-48
2021/04/15 02:35:09;;;;;;;2.55;2.33;;;;;;;;;;5095610;28;19912;-50
2021/04/15 02:37:38;;;;;;;4.82;2.53;;;;;;;;;;5102121;28;20051;-50
2021/04/15 02:40:07;;;;;;;2.83;2.53;;;;;;;;;;5115744;28;20050;-50
2021/04/15 02:42:36;;;;;;;2.60;2.30;;;;;;;;;;5115946;28;20044;-49
2021/04/15 02:45:17;;;;;;;3.03;2.47;;;;;;;;;;5115997;28;20039;-54
2021/04/15 02:47:47;;;;;;;3.03;2.67;;;;;;;;;;5115579;28;20345;-52
2021/04/15 02:50:15;;;;;;;2.63;2.42;;;;;;;;;;5115412;28;20048;-49
2021/04/15 02:52:45;;;;;;;2.50;2.20;;;;;;;;;;5115829;28;20047;-54
2021/04/15 02:55:14;;;;;;;2.33;1.98;;;;;;;;;;5113858;28;20051;-48
2021/04/15 02:57:52;;;;;;;2.38;2.08;;;;;;;;;;5115268;28;20047;-47
2021/04/15 03:00:22;;;;;;;2.85;2.20;;;;;;;;;;5115629;28;20043;-53
2021/04/15 03:02:51;;;;;;;2.40;2.20;;;;;;;;;;5116108;28;20039;-51
2021/04/15 03:05:23;;;;;;;2.10;1.90;;;;;;;;;;5116457;28;20036;-48
2021/04/15 03:07:52;;;;;;;2.90;2.25;;;;;;;;;;5119955;28;20047;-47
2021/04/15 03:10:20;;;;;;;3.53;2.70;;;;;;;;;;5118833;28;20039;-48
2021/04/15 03:12:49;;;;;;;2.90;2.00;;;;;;;;;;5120012;28;20044;-47
2021/04/15 03:15:18;;;;;;;2.67;2.25;;;;;;;;;;5119690;28;20039;-50
2021/04/15 03:17:46;;;;;;;2.50;2.13;;;;;;;;;;5119330;28;20043;-50
2021/04/15 03:20:15;;;;;;;2.72;2.35;;;;;;;;;;5119391;28;20472;-48
2021/04/15 03:22:51;;;;;;;2.55;2.35;;;;;;;;;;5119312;28;20051;-48
2021/04/15 03:25:18;;;;;;;2.78;2.35;;;;;;;;;;5119699;28;20032;-48
2021/04/15 03:27:54;;;;;;;3.45;2.70;;;;;;;;;;5118791;28;20065;-48
2021/04/15 03:30:24;;;;;;;2.75;2.30;;;;;;;;;;5119254;28;20035;-48
2021/04/15 03:33:02;;;;;;;2.95;2.58;;;;;;;;;;5119480;28;20044;-50
2021/04/15 03:35:34;;;;;;;4.47;2.83;;;;;;;;;;5119202;28;20036;-50
2021/04/15 03:38:01;;;;;;;2.75;2.50;;;;;;;;;;5119057;28;20047;-50
2021/04/15 03:40:30;;;;;;;3.20;2.80;;;;;;;;;;5119244;28;20042;-48
2021/04/15 03:43:02;;;;;;;2.63;2.40;;;;;;;;;;5110338;28;20050;-46
2021/04/15 03:45:31;;;;;;;3.28;2.92;;;;;;;;;;5098759;28;20036;-51
2021/04/15 03:48:02;;;;;;;3.72;3.30;;;;;;;;;;5112921;28;20385;-51
2021/04/15 03:50:36;;;;;;;3.05;2.75;;;;;;;;;;5118887;28;20472;-47
2021/04/15 03:53:06;;;;;;;3.70;3.08;;;;;;;;;;5098812;28;20043;-46
2021/04/15 03:55:41;;;;;;;3.72;3.30;;;;;;;;;;5097614;28;20040;-48
2021/04/15 03:58:10;;;;;;;3.50;3.20;;;;;;;;;;5113580;28;20319;-49
2021/04/15 04:00:42;;;;;;;3.75;3.40;;;;;;;;;;5118570;28;20044;-50
2021/04/15 04:03:15;;;;;;;3.15;2.80;;;;;;;;;;5118847;28;20044;-50
2021/04/15 04:05:45;;;;;;;3.97;3.25;;;;;;;;;;5118925;28;20036;-48
2021/04/15 04:08:16;;;;;;;3.90;3.35;;;;;;;;;;5118588;28;20040;-49
2021/04/15 04:10:46;;;;;;;3.85;3.00;;;;;;;;;;5101506;28;20047;-50
2021/04/15 04:13:16;;;;;;;3.70;3.10;;;;;;;;;;5115527;28;20050;-51
2021/04/15 04:15:45;;;;;;;3.40;3.10;;;;;;;;;;5118573;27;20469;-46
2021/04/15 04:18:14;;;;;;;4.88;3.28;;;;;;;;;;5099105;28;20050;-59
2021/04/15 04:20:41;;;;;;;3.83;3.08;;;;;;;;;;5118163;28;20062;-53
2021/04/15 04:23:27;;;;;;;3.60;3.30;;;;;;;;;;5118253;28;20473;-50
2021/04/15 04:26:04;;;;;;;3.70;3.40;;;;;;;;;;5105375;28;20047;-53
2021/04/15 04:28:37;;;;;;;3.65;3.33;;;;;;;;;;5109649;28;20047;-61
2021/04/15 04:31:07;;;;;;;4.43;3.53;;;;;;;;;;5097652;28;20036;-44
2021/04/15 04:33:40;;;;;;;4.90;4.20;;;;;;;;;;5098016;28;20047;-46
2021/04/15 04:36:08;;;;;;;5.28;4.70;;;;;;;;;;5097921;28;20442;-46
2021/04/15 04:38:35;;;;;;;5.53;4.18;;;;;;;;;;5108734;28;20055;-50
2021/04/15 04:41:06;;;;;;;7.32;4.82;;;;;;;;;;5097813;28;20050;-45
2021/04/15 04:43:48;;;;;;;6.88;4.60;;;;;;;;;;5098011;28;20430;-45
2021/04/15 04:46:23;;;;;;;5.65;4.80;;;;;;;;;;5097090;28;20044;-50
2021/04/15 04:48:57;;;;;;;5.82;4.60;;;;;;;;;;5111938;28;20362;-45
2021/04/15 04:51:27;;;;;;;5.78;4.80;;;;;;;;;;5113863;28;20054;-45
2021/04/15 04:53:54;;;;;;;8.30;5.30;;;;;;;;;;5097511;28;20047;-45
2021/04/15 04:56:23;;;;;;;5.18;4.68;;;;;;;;;;5097385;28;20044;-46
2021/04/15 04:58:59;;;;;;;4.90;4.40;;;;;;;;;;5098089;28;20036;-45
2021/04/15 05:01:26;;;;;;;5.47;4.78;;;;;;;;;;5107224;28;20358;-46
2021/04/15 05:04:00;;;;;;;5.50;4.47;;;;;;;;;;5117480;28;20047;-44
2021/04/15 05:06:31;;;;;;;6.75;4.63;;;;;;;;;;5117521;28;20040;-45
2021/04/15 05:09:01;;;;;;;5.45;4.60;;;;;;;;;;5116735;28;20040;-46
2021/04/15 05:11:32;;;;;;;7.22;5.30;;;;;;;;;;5116428;28;20036;-49
2021/04/15 05:13:59;;;;;;;5.00;4.47;;;;;;;;;;5117459;28;20074;-46
2021/04/15 05:16:34;;;;;;;6.18;5.18;;;;;;;;;;5097087;28;20362;-45
2021/04/15 05:19:01;;;;;;;6.88;5.82;;;;;;;;;;5096901;28;20357;-45
2021/04/15 05:21:31;;;;;;;9.98;5.80;;;;;;;;;;5115807;28;20035;-46
2021/04/15 05:24:07;;;;;;;8.60;6.35;;;;;;;;;;5117322;28;20047;-47
2021/04/15 05:26:35;;;;;;;7.20;5.47;;;;;;;;;;5116633;28;20426;-47
2021/04/15 05:29:04;;;;;;;8.20;6.13;;;;;;;;;;5115820;28;20044;-44
2021/04/15 05:31:32;;;;;;;8.35;6.03;;;;;;;;;;5116800;28;20047;-44
2021/04/15 05:34:01;;;;;;;7.45;5.55;;;;;;;;;;5116903;28;20050;-45
2021/04/15 05:36:32;;;;;;;7.55;5.88;;;;;;;;;;5116931;28;20051;-46
2021/04/15 05:39:01;;;;;;;8.48;6.28;;;;;;;;;;5117076;28;20044;-45
2021/04/15 05:41:45;;;;;;;9.18;7.10;;;;;;;;;;5116893;28;20044;-45
2021/04/15 05:44:16;;;;;;;6.50;5.45;;;;;;;;;;5115866;28;20043;-45
2021/04/15 05:46:45;;;;;;;6.50;5.32;;;;;;;;;;5116958;28;20039;-46
2021/04/15 05:49:15;;;;;;;5.85;5.05;;;;;;;;;;5109298;28;20063;-44
2021/04/15 05:51:45;;;;;;;7.20;5.78;;;;;;;;;;5105080;28;20040;-45
2021/04/15 05:54:14;;;;;;;7.30;5.97;;;;;;;;;;5116557;28;20043;-45
2021/04/15 05:56:47;;;;;;;7.22;5.95;;;;;;;;;;5116123;28;20040;-45
2021/04/15 05:59:17;;;;;;;6.13;5.53;;;;;;;;;;5115455;28;20047;-45
2021/04/15 06:01:48;;;;;;;6.55;5.78;;;;;;;;;;5116111;28;20366;-46
2021/04/15 06:04:19;;;;;;;7.03;5.82;;;;;;;;;;5116406;28;20051;-52
2021/04/15 06:06:46;;;;;;;6.57;5.70;;;;;;;;;;5116067;28;20039;-46
2021/04/15 06:09:13;;;;;;;7.90;5.60;;;;;;;;;;5116268;28;20370;-47
2021/04/15 06:11:40;;;;;;;6.97;5.28;;;;;;;;;;5113320;28;20036;-46
2021/04/15 06:14:18;;;;;;;6.65;5.88;;;;;;;;;;5106243;28;20036;-47
2021/04/15 06:16:47;;;;;;;7.72;6.05;;;;;;;;;;5106784;28;20051;-46
2021/04/15 06:19:21;;;;;;;7.28;5.53;;;;;;;;;;5094406;28;20493;-46
2021/04/15 06:21:51;;;;;;;7.38;6.30;;;;;;;;;;5104296;28;20335;-47
2021/04/15 06:24:22;;;;;;;6.53;5.82;;;;;;;;;;5116018;28;20039;-45
2021/04/15 06:26:51;;;;;;;7.75;6.20;;;;;;;;;;5115881;28;20040;-47
2021/04/15 06:29:18;;;;;;;8.63;6.55;;;;;;;;;;5115920;28;20044;-47
2021/04/15 06:31:47;;;;;;;7.93;6.18;;;;;;;;;;5107872;28;20043;-47
2021/04/15 06:34:14;;;;;;;8.48;5.60;;;;;;;;;;5095701;28;20043;-46
2021/04/15 06:36:40;;;;;;;7.18;5.95;;;;;;;;;;5095589;28;20047;-46
2021/04/15 06:39:14;;;;;;;6.25;5.50;;;;;;;;;;5095572;28;20047;-48
2021/04/15 06:41:47;;;;;;;6.07;5.15;;;;;;;;;;5102236;28;20040;-45
2021/04/15 06:44:14;;;;;;;;;;;;;;;;;;5116065;28;20078;-46
2021/04/15 06:46:46;;;;;;;6.90;5.25;;;;;;;;;;5115116;28;20229;-45
2021/04/15 06:49:19;;;;;;;7.68;5.88;;;;;;;;;;5115691;28;20056;-47
2021/04/15 06:51:57;;;;;;;7.10;5.60;;;;;;;;;;5106217;28;20458;-46
2021/04/15 06:54:33;;;;;;;13.20;6.55;;;;;;;;;;5115720;28;20035;-46
2021/04/15 06:57:12;;;;;;;6.68;5.95;;;;;;;;;;5101918;28;20365;-45
2021/04/15 06:59:58;;;;;;;6.97;5.95;;;;;;;;;;5115594;28;20042;-47
2021/04/15 07:02:45;;;;;;;6.93;6.15;;;;;;;;;;5115469;28;20051;-45
2021/04/15 07:05:24;;;;;;;6.82;6.13;;;;;;;;;;5115852;28;20078;-44
2021/04/15 07:07:56;;;;;;;7.43;5.75;;;;;;;;;;5104387;28;20032;-45
2021/04/15 07:10:26;;;;;;;9.67;6.40;;;;;;;;;;5095092;28;20058;-45
2021/04/15 07:12:58;;;;;;;6.60;5.75;;;;;;;;;;5093978;28;20047;-48
2021/04/15 07:16:03;;;;;;;8.95;6.07;;;;;;;;;;5115293;28;20035;-46
2021/04/15 07:18:36;;;;;;;7.57;5.80;;;;;;;;;;5052285;28;20048;-45
2021/04/15 07:21:21;;;;;;;8.30;6.25;;;;;;;;;;5051799;28;20057;-45
2021/04/15 07:24:06;;;;;;;7.88;6.60;;;;;;;;;;5073300;28;20044;-45
2021/04/15 07:26:45;;;;;;;9.13;6.20;;;;;;;;;;5096096;28;20071;-45
2021/04/15 07:29:24;;;;;;;7.85;6.28;;;;;;;;;;5104715;28;20040;-47
2021/04/15 07:31:57;;;;;;;9.23;6.50;;;;;;;;;;5101796;28;20032;-45
2021/04/15 07:34:24;;;;;;;;;;;;;;;;;;5115658;28;20355;-45
2021/04/15 07:37:09;;;;;;;8.32;6.50;;;;;;;;;;5115290;28;19912;-45
2021/04/15 07:39:36;;;;;;;8.27;6.90;;;;;;;;;;5115066;28;20051;-46
2021/04/15 07:42:06;;;;;;;8.73;7.07;;;;;;;;;;5115260;28;20473;-46
2021/04/15 07:44:34;;;;;;;8.65;6.65;;;;;;;;;;5115197;28;20050;-46
2021/04/15 07:47:17;;;;;;;8.88;6.93;;;;;;;;;;5112779;28;20039;-46
2021/04/15 07:50:02;;;;;;;10.77;7.90;;;;;;;;;;5094784;28;20383;-45
2021/04/15 07:52:55;;;;;;;13.75;9.85;;;;;;;;;;5107375;28;20047;-45
2021/04/15 07:55:25;;;;;;;14.07;10.07;;;;;;;;;;5095747;28;20039;-44
2021/04/15 07:58:01;;;;;;;13.10;9.85;;;;;;;;;;5118652;28;20382;-52
2021/04/15 08:00:35;;;;;;;15.82;11.10;;;;;;;;;;5117650;28;20043;-46
2021/04/15 08:03:20;;;;;;;14.80;9.80;;;;;;;;;;5117301;28;20040;-44
2021/04/15 08:06:05;;;;;;;13.13;10.00;;;;;;;;;;5118854;28;20043;-46
2021/04/15 08:08:35;;;;;;;13.15;9.48;;;;;;;;;;5106467;28;20032;-44
2021/04/15 08:11:02;;;;;;;15.25;10.07;;;;;;;;;;5098258;28;20032;-45
2021/04/15 08:13:35;;;;;;;14.85;10.45;;;;;;;;;;5104493;28;20040;-50
2021/04/15 08:16:27;;;;;;;17.65;11.38;;;;;;;;;;5080388;28;20048;-44
2021/04/15 08:18:57;;;;;;;16.25;12.10;;;;;;;;;;5098116;28;20040;-44
2021/04/15 08:21:30;;;;;;;15.30;10.60;;;;;;;;;;5099696;28;20055;-46
2021/04/15 08:23:56;;;;;;;;;;;;;;;;;;5119045;28;20396;-45
2021/04/15 08:26:23;;;;;;;11.30;8.85;;;;;;;;;;5118314;28;19911;-44
2021/04/15 08:28:56;;;;;;;12.88;9.80;;;;;;;;;;5118062;28;20036;-46
2021/04/15 08:31:47;;;;;;;14.48;10.32;;;;;;;;;;5117969;28;20046;-45
2021/04/15 08:34:14;;;;;;;14.25;9.85;;;;;;;;;;5118163;28;20492;-45
2021/04/15 08:36:43;;;;;;;10.32;8.10;;;;;;;;;;5099972;28;20032;-45
2021/04/15 08:39:10;;;;;;;10.82;8.90;;;;;;;;;;5097803;28;20055;-46
2021/04/15 08:41:43;;;;;;;8.90;7.90;;;;;;;;;;5100525;28;20063;-47
2021/04/15 08:44:10;;;;;;;;;;;;;;;;;;5110378;28;20052;-45
2021/04/15 08:46:47;;;;;;;10.27;8.15;;;;;;;;;;5097530;28;19919;-46
2021/04/15 08:49:17;;;;;;;9.43;7.63;;;;;;;;;;5097285;28;20047;-46
2021/04/15 08:51:48;;;;;;;9.30;7.80;;;;;;;;;;5101336;28;20048;-46
2021/04/15 08:54:35;;;;;;;9.23;7.72;;;;;;;;;;5117849;28;20481;-46
2021/04/15 08:57:37;;;;;;;9.93;8.10;;;;;;;;;;5117480;28;20058;-45
2021/04/15 09:00:14;;;;;;;10.98;8.38;;;;;;;;;;5034884;28;20052;-44
2021/04/15 09:02:49;;;;;;;10.40;8.25;;;;;;;;;;5107025;28;20043;-45
2021/04/15 09:05:16;;;;;;;10.48;8.55;;;;;;;;;;5114944;28;20039;-45
2021/04/15 09:07:56;;;;;;;9.55;8.27;;;;;;;;;;5097247;28;20378;-46
2021/04/15 09:10:27;;;;;;;10.15;7.95;;;;;;;;;;5096711;28;20457;-46
2021/04/15 09:13:13;;;;;;;9.98;7.47;;;;;;;;;;5109780;28;20058;-46
2021/04/15 09:15:50;;;;;;;10.75;7.95;;;;;;;;;;5109245;28;20051;-45
2021/04/15 09:18:23;;;;;;;11.45;8.18;;;;;;;;;;5096813;28;20040;-51
2021/04/15 09:21:13;;;;;;;38.55;27.10;;;;;;;;;;5096848;28;20439;-46
2021/04/15 09:23:39;;;;;;;29.83;19.85;;;;;;;;;;5096650;28;20047;-47
2021/04/15 09:26:09;;;;;;;19.48;13.25;;;;;;;;;;5096845;28;20040;-48
2021/04/15 09:28:36;;;;;;;11.25;8.88;;;;;;;;;;5114687;28;20047;-45
2021/04/15 09:31:15;;;;;;;10.02;8.52;;;;;;;;;;5105987;28;20051;-47
2021/04/15 09:33:58;;;;;;;11.93;7.80;;;;;;;;;;5116546;28;20043;-46
2021/04/15 09:36:28;;;;;;;10.13;8.10;;;;;;;;;;5116790;28;20473;-45
2021/04/15 09:39:02;;;;;;;10.05;7.78;;;;;;;;;;5116713;28;20039;-47
2021/04/15 09:41:43;;;;;;;9.68;8.55;;;;;;;;;;5106716;28;20047;-47
2021/04/15 09:44:29;;;;;;;9.07;7.65;;;;;;;;;;5107595;28;20370;-47
2021/04/15 09:47:21;;;;;;;10.57;8.18;;;;;;;;;;5096579;28;20051;-46
2021/04/15 09:49:54;;;;;;;17.60;13.43;;;;;;;;;;5111784;28;20381;-46
2021/04/15 09:52:30;;;;;;;11.07;8.43;;;;;;;;;;5116593;28;20047;-45
2021/04/15 09:54:58;;;;;;;8.70;7.43;;;;;;;;;;5116799;28;20044;-44
2021/04/15 09:57:34;;;;;;;10.65;7.32;;;;;;;;;;5104933;28;20036;-46
2021/04/15 10:00:01;;;;;;;8.65;7.03;;;;;;;;;;5116497;28;20070;-47
2021/04/15 10:02:49;;;;;;;8.48;7.45;;;;;;;;;;5116438;28;20358;-47
2021/04/15 10:05:35;;;;;;;9.38;7.38;;;;;;;;;;5116386;28;20047;-45
2021/04/15 10:08:05;;;;;;;9.07;7.25;;;;;;;;;;5116501;28;20442;-46
2021/04/15 10:10:50;;;;;;;9.07;7.18;;;;;;;;;;5116362;28;20031;-46
2021/04/15 10:13:30;;;;;;;10.95;7.60;;;;;;;;;;5116411;28;20041;-45
2021/04/15 10:16:06;;;;;;;12.68;7.88;;;;;;;;;;5115750;28;20047;-48
2021/04/15 10:18:48;;;;;;;9.45;7.30;;;;;;;;;;5116047;28;20051;-47
2021/04/15 10:21:26;;;;;;;9.55;6.90;;;;;;;;;;5116390;28;20036;-44
2021/04/15 10:24:02;;;;;;;10.98;7.30;;;;;;;;;;5116263;28;20047;-46
2021/04/15 10:26:31;;;;;;;9.70;6.53;;;;;;;;;;5115307;28;20040;-46
2021/04/15 10:29:13;;;;;;;7.57;6.18;;;;;;;;;;5113145;28;20434;-44
2021/04/15 10:31:43;;;;;;;30.25;20.70;;;;;;;;;;5095677;28;20069;-48
2021/04/15 10:34:29;;;;;;;10.00;8.40;;;;;;;;;;5095785;28;20043;-47
2021/04/15 10:36:56;;;;;;;9.60;6.53;;;;;;;;;;5095615;28;20044;-45
2021/04/15 10:39:30;;;;;;;7.50;6.15;;;;;;;;;;5095508;28;20048;-48
2021/04/15 10:42:14;;;;;;;6.70;6.00;;;;;;;;;;5097256;28;20043;-45
2021/04/15 10:44:41;;;;;;;9.85;8.27;;;;;;;;;;5115766;28;20043;-46
2021/04/15 10:47:17;;;;;;;9.35;7.13;;;;;;;;;;5111871;28;20043;-49
2021/04/15 10:50:03;;;;;;;6.45;5.75;;;;;;;;;;5095261;28;20059;-46
2021/04/15 10:52:48;;;;;;;6.97;5.55;;;;;;;;;;5099731;28;20047;-49
2021/04/15 10:55:15;;;;;;;8.25;6.05;;;;;;;;;;5095413;28;20064;-45
2021/04/15 10:57:42;;;;;;;9.43;6.40;;;;;;;;;;5105740;28;20039;-46
2021/04/15 11:00:41;;;;;;;7.43;5.50;;;;;;;;;;5115564;28;20059;-46
2021/04/15 11:03:18;;;;;;;8.20;6.20;;;;;;;;;;5060445;28;20048;-45
2021/04/15 11:05:46;;;;;;;8.00;6.50;;;;;;;;;;5101496;28;20032;-47
2021/04/15 11:08:39;;;;;;;7.18;5.40;;;;;;;;;;5095346;28;20047;-45
2021/04/15 11:11:09;;;;;;;6.40;5.28;;;;;;;;;;5093252;28;20039;-47
2021/04/15 11:13:37;;;;;;;8.50;5.22;;;;;;;;;;5109893;28;20031;-47
2021/04/15 11:16:04;;;;;;;6.05;5.25;;;;;;;;;;5115656;28;20062;-45
2021/04/15 11:18:33;;;;;;;7.72;5.30;;;;;;;;;;5115328;28;20043;-50
2021/04/15 11:21:12;;;;;;;7.40;5.80;;;;;;;;;;5106343;28;20380;-46
2021/04/15 11:23:39;;;;;;;8.25;5.70;;;;;;;;;;5110234;28;20043;-47
2021/04/15 11:26:17;;;;;;;7.22;4.95;;;;;;;;;;5116092;28;20061;-45
2021/04/15 11:28:44;;;;;;;6.57;4.85;;;;;;;;;;5118791;28;20046;-46
2021/04/15 11:31:11;;;;;;;6.10;5.07;;;;;;;;;;5119580;28;20042;-45
2021/04/15 11:33:42;;;;;;;6.72;4.90;;;;;;;;;;5119081;28;20039;-50
2021/04/15 11:36:28;;;;;;;6.70;5.50;;;;;;;;;;5119148;28;20068;-46
2021/04/15 11:39:04;;;;;;;8.73;5.20;;;;;;;;;;5119114;28;20040;-44
2021/04/15 11:41:55;;;;;;;7.43;5.40;;;;;;;;;;5102611;28;20071;-48
2021/04/15 11:44:36;;;;;;;8.02;5.50;;;;;;;;;;5113493;28;20327;-48
2021/04/15 11:47:06;;;;;;;8.85;6.10;;;;;;;;;;5119400;28;20047;-46
2021/04/15 11:49:35;;;;;;;7.03;5.97;;;;;;;;;;5110789;28;20375;-47
2021/04/15 11:52:08;;;;;;;7.50;6.28;;;;;;;;;;5098824;28;20067;-46
2021/04/15 11:54:35;;;;;;;;;;;;;;;;;;5098866;28;20047;-46
2021/04/15 11:57:22;;;;;;;6.80;5.65;;;;;;;;;;5103590;28;19919;-46
2021/04/15 11:59:59;;;;;;;10.23;6.40;;;;;;;;;;5118468;27;20040;-46
2021/04/15 12:02:28;;;;;;;6.72;5.60;;;;;;;;;;5106851;28;20051;-48
2021/04/15 12:05:31;;;;;;;8.52;5.63;;;;;;;;;;5119018;28;20052;-46
2021/04/15 12:08:09;;;;;;;8.10;5.88;;;;;;;;;;5119041;28;20043;-45
2021/04/15 12:10:39;;;;;;;8.90;5.80;;;;;;;;;;5098134;28;20047;-47
2021/04/15 12:13:29;;;;;;;9.15;5.40;;;;;;;;;;5108290;28;20046;-50
2021/04/15 12:15:57;;;;;;;8.27;5.97;;;;;;;;;;5118307;28;20445;-46
2021/04/15 12:18:39;;;;;;;7.70;5.53;;;;;;;;;;5118323;28;20047;-45
2021/04/15 12:21:09;;;;;;;6.78;5.38;;;;;;;;;;5118728;28;20047;-47
2021/04/15 12:23:45;;;;;;;8.07;5.70;;;;;;;;;;5118501;28;20047;-47
2021/04/15 12:26:48;;;;;;;8.30;5.97;;;;;;;;;;5117738;28;20047;-45
2021/04/15 12:29:21;;;;;;;8.77;5.00;;;;;;;;;;5055718;28;20037;-46
2021/04/15 12:31:47;;;;;;;7.70;5.57;;;;;;;;;;5091637;28;20350;-48
2021/04/15 12:34:24;;;;;;;9.13;5.43;;;;;;;;;;5102338;28;20040;-46
2021/04/15 12:37:05;;;;;;;26.08;15.68;;;;;;;;;;5097852;28;20044;-47
2021/04/15 12:39:41;;;;;;;21.42;15.20;;;;;;;;;;5096769;28;20047;-46
2021/04/15 12:42:08;;;;;;;9.77;7.28;;;;;;;;;;5097743;28;20439;-46
2021/04/15 12:44:52;;;;;;;7.30;5.10;;;;;;;;;;5097680;28;20043;-46
2021/04/15 12:47:18;;;;;;;6.80;5.03;;;;;;;;;;5097664;28;20040;-44
2021/04/15 12:49:47;;;;;;;7.55;4.80;;;;;;;;;;5097442;28;20048;-46
2021/04/15 12:52:14;;;;;;;6.95;4.80;;;;;;;;;;5097581;28;20051;-46
2021/04/15 12:54:43;;;;;;;5.30;4.13;;;;;;;;;;5117897;28;20069;-46
2021/04/15 12:57:14;;;;;;;6.80;4.80;;;;;;;;;;5117669;28;20044;-47
2021/04/15 12:59:48;;;;;;;6.45;5.00;;;;;;;;;;5117643;28;20043;-45
2021/04/15 13:02:19;;;;;;;6.20;4.38;;;;;;;;;;5113728;28;20040;-47
2021/04/15 13:04:50;;;;;;;7.60;4.57;;;;;;;;;;5117338;28;20058;-47
2021/04/15 13:07:23;;;;;;;7.28;4.63;;;;;;;;;;5117672;28;20043;-47
2021/04/15 13:09:49;;;;;;;;;;;;;;;;;;5117934;28;20038;-46
2021/04/15 13:12:19;;;;;;;6.40;4.40;;;;;;;;;;5117574;28;19907;-46
2021/04/15 13:14:46;;;;;;;5.15;4.63;;;;;;;;;;5117682;28;20430;-47
2021/04/15 13:17:14;;;;;;;6.63;4.60;;;;;;;;;;5097209;28;20059;-45
2021/04/15 13:19:51;;;;;;;5.38;4.35;;;;;;;;;;5096865;28;20442;-47
2021/04/15 13:22:18;;;;;;;6.35;4.50;;;;;;;;;;5096910;28;20051;-46
2021/04/15 13:24:48;;;;;;;6.38;4.53;;;;;;;;;;5117053;28;20048;-47
2021/04/15 13:27:36;;;;;;;6.95;4.22;;;;;;;;;;5116933;28;20516;-47
2021/04/15 13:30:06;;;;;;;5.75;4.25;;;;;;;;;;5116998;28;20074;-49
2021/04/15 13:32:51;;;;;;;6.63;4.55;;;;;;;;;;5098188;28;20036;-45
2021/04/15 13:35:20;;;;;;;6.68;4.50;;;;;;;;;;5095621;28;20366;-46
2021/04/15 13:37:47;;;;;;;5.43;4.45;;;;;;;;;;5096767;28;20362;-46
2021/04/15 13:40:20;;;;;;;5.80;4.03;;;;;;;;;;5096477;28;20044;-45
2021/04/15 13:42:47;;;;;;;4.57;3.95;;;;;;;;;;5099522;28;20047;-46
2021/04/15 13:45:32;;;;;;;4.85;3.70;;;;;;;;;;5115711;28;20039;-47
2021/04/15 13:48:00;;;;;;;5.47;4.13;;;;;;;;;;5111096;28;20070;-45
2021/04/15 13:50:45;;;;;;;4.85;4.00;;;;;;;;;;5095673;28;20055;-45
2021/04/15 13:53:38;;;;;;;4.93;3.53;;;;;;;;;;5078624;28;20040;-48
2021/04/15 13:56:26;;;;;;;5.25;3.53;;;;;;;;;;5110079;28;20054;-47
2021/04/15 13:59:06;;;;;;;;;;;;;;;;;;5116804;28;20386;-48
2021/04/15 14:01:43;;;;;;;5.30;3.95;;;;;;;;;;5116306;28;20203;-46
2021/04/15 14:04:30;;;;;;;5.60;3.88;;;;;;;;;;5096135;28;20075;-45
2021/04/15 14:07:20;;;;;;;5.70;3.97;;;;;;;;;;5103806;28;20071;-46
2021/04/15 14:09:47;;;;;;;6.18;3.60;;;;;;;;;;5088429;28;20040;-46
2021/04/15 14:12:32;;;;;;;5.38;3.75;;;;;;;;;;5116158;28;20035;-47
2021/04/15 14:15:02;;;;;;;13.38;3.75;;;;;;;;;;5098031;28;20048;-44
2021/04/15 14:17:30;;;;;;;5.60;3.92;;;;;;;;;;5098428;28;20048;-45
2021/04/15 14:20:20;;;;;;;37.38;18.17;;;;;;;;;;5109669;27;20124;-44
2021/04/15 14:22:47;;;;;;;15.65;9.45;;;;;;;;;;5099319;28;20048;-45
2021/04/15 14:25:28;;;;;;;13.40;7.70;;;;;;;;;;5112226;28;20047;-45
2021/04/15 14:27:55;;;;;;;10.27;7.05;;;;;;;;;;5112553;28;20357;-55
2021/04/15 14:30:23;;;;;;;9.98;5.93;;;;;;;;;;5094237;28;20047;-47
2021/04/15 14:32:50;;;;;;;9.20;5.75;;;;;;;;;;5095717;28;20381;-44
2021/04/15 14:35:17;;;;;;;7.90;4.88;;;;;;;;;;5097262;28;20051;-53
2021/04/15 14:37:44;;;;;;;7.18;4.82;;;;;;;;;;5095622;28;20043;-50
2021/04/15 14:40:43;;;;;;;38.40;34.22;;;;;;;;;;5095568;28;20044;-44
2021/04/15 14:43:15;;;;;;;19.45;17.45;;;;;;;;;;5080270;28;20043;-44
2021/04/15 14:45:41;;;;;;;16.13;14.43;;;;;;;;;;5098349;28;20040;-46
2021/04/15 14:48:27;;;;;;;9.98;8.65;;;;;;;;;;5095170;28;20457;-44
2021/04/15 14:51:02;;;;;;;8.38;6.68;;;;;;;;;;5095712;28;20063;-45
2021/04/15 14:53:29;;;;;;;8.82;6.93;;;;;;;;;;5095166;28;20343;-44
2021/04/15 14:56:14;;;;;;;6.65;5.40;;;;;;;;;;5105695;28;20059;-44
2021/04/15 14:58:41;;;;;;;8.65;5.72;;;;;;;;;;5112814;28;20047;-44
2021/04/15 15:01:26;;;;;;;6.25;3.95;;;;;;;;;;5103910;28;20039;-44
2021/04/15 15:03:56;;;;;;;4.50;3.72;;;;;;;;;;5095258;28;20047;-45
2021/04/15 15:06:39;;;;;;;9.27;3.97;;;;;;;;;;5096362;28;20036;-45
2021/04/15 15:09:07;;;;;;;19.55;14.23;;;;;;;;;;5094298;28;20040;-44
2021/04/15 15:11:35;;;;;;;10.90;6.80;;;;;;;;;;5094671;28;20358;-45
2021/04/15 15:14:05;;;;;;;6.13;4.30;;;;;;;;;;5094924;28;20358;-45
2021/04/15 15:16:34;;;;;;;6.97;4.32;;;;;;;;;;5113174;28;20062;-46
2021/04/15 15:19:01;;;;;;;6.57;4.20;;;;;;;;;;5101896;28;20035;-46
2021/04/15 15:21:30;;;;;;;6.95;4.07;;;;;;;;;;5115327;28;20046;-47